Cardiff, Colorado
Current Conditions -  °F | °C
As of 10:50 PM on Wednesday 17 Dec 2014 (Local Time) from KEGE Reporting Station
Light Snow Light Snow  
Wind Chill: 27°   Ceiling: 3500
Heat Index: 27°   Visibility: 6mi
Dew Point: 25°   Wind: 0mph
Humidity: 93%   Direction: NA
Pressure: 30.06"   Gusts: NA
Location:  39.6119°N, 107.29°W
Report Text: KEGE 180550Z 00000KT 6SM -SN BR OVC035 M03/M04 A3006
Loading
Personal Weather Stations






























Interactive Weather Map New forecast layout! Learn more

10-Day Weather Forecast

Advertisements
Track Severe Weather on mobile